sensor_id;sensor_type;location;lat;lon;timestamp;P1;durP1;ratioP1;P2;durP2;ratioP2
76712;SDS011;65640;43.154;25.658;2023-05-27T00:01:53;4.00;;;3.70;;
76712;SDS011;65640;43.154;25.658;2023-05-27T00:04:18;4.57;;;3.75;;
76712;SDS011;65640;43.154;25.658;2023-05-27T00:06:43;5.43;;;4.28;;
76712;SDS011;65640;43.154;25.658;2023-05-27T00:09:09;5.35;;;4.30;;
76712;SDS011;65640;43.154;25.658;2023-05-27T00:11:34;7.88;;;4.40;;
76712;SDS011;65640;43.154;25.658;2023-05-27T00:14:00;5.22;;;3.78;;
76712;SDS011;65640;43.154;25.658;2023-05-27T00:16:25;5.07;;;4.38;;
76712;SDS011;65640;43.154;25.658;2023-05-27T00:18:51;4.70;;;4.40;;
76712;SDS011;65640;43.154;25.658;2023-05-27T00:21:17;10.23;;;4.47;;
76712;SDS011;65640;43.154;25.658;2023-05-27T00:23:46;4.65;;;4.05;;
76712;SDS011;65640;43.154;25.658;2023-05-27T00:26:12;4.93;;;4.43;;
76712;SDS011;65640;43.154;25.658;2023-05-27T00:28:37;6.05;;;4.28;;
76712;SDS011;65640;43.154;25.658;2023-05-27T00:31:03;4.70;;;4.40;;
76712;SDS011;65640;43.154;25.658;2023-05-27T00:33:28;6.25;;;4.30;;
76712;SDS011;65640;43.154;25.658;2023-05-27T00:35:54;5.38;;;4.78;;
76712;SDS011;65640;43.154;25.658;2023-05-27T00:38:19;4.15;;;3.90;;
76712;SDS011;65640;43.154;25.658;2023-05-27T00:40:45;4.10;;;3.80;;
76712;SDS011;65640;43.154;25.658;2023-05-27T00:43:11;8.85;;;4.25;;
76712;SDS011;65640;43.154;25.658;2023-05-27T00:45:37;5.90;;;4.68;;
76712;SDS011;65640;43.154;25.658;2023-05-27T00:48:02;4.30;;;3.70;;
76712;SDS011;65640;43.154;25.658;2023-05-27T00:50:28;8.25;;;4.38;;
76712;SDS011;65640;43.154;25.658;2023-05-27T00:52:55;4.55;;;4.18;;
76712;SDS011;65640;43.154;25.658;2023-05-27T00:55:23;4.82;;;4.32;;
76712;SDS011;65640;43.154;25.658;2023-05-27T00:57:49;6.22;;;4.00;;
76712;SDS011;65640;43.154;25.658;2023-05-27T01:00:15;3.83;;;3.55;;
76712;SDS011;65640;43.154;25.658;2023-05-27T01:02:40;8.25;;;4.05;;
76712;SDS011;65640;43.154;25.658;2023-05-27T01:05:11;3.78;;;3.47;;
76712;SDS011;65640;43.154;25.658;2023-05-27T01:13:06;6.30;;;4.00;;
76712;SDS011;65640;43.154;25.658;2023-05-27T01:15:38;5.82;;;3.70;;
76712;SDS011;65640;43.154;25.658;2023-05-27T01:18:04;5.32;;;3.83;;
76712;SDS011;65640;43.154;25.658;2023-05-27T01:20:31;5.10;;;3.90;;
76712;SDS011;65640;43.154;25.658;2023-05-27T01:22:57;4.03;;;3.58;;
76712;SDS011;65640;43.154;25.658;2023-05-27T01:25:24;4.15;;;3.47;;
76712;SDS011;65640;43.154;25.658;2023-05-27T01:27:50;3.97;;;3.40;;
76712;SDS011;65640;43.154;25.658;2023-05-27T01:30:17;6.18;;;3.67;;
76712;SDS011;65640;43.154;25.658;2023-05-27T01:37:49;3.70;;;3.40;;
76712;SDS011;65640;43.154;25.658;2023-05-27T01:40:17;7.03;;;4.00;;
76712;SDS011;65640;43.154;25.658;2023-05-27T01:45:10;4.15;;;3.72;;
76712;SDS011;65640;43.154;25.658;2023-05-27T01:47:36;5.57;;;4.13;;
76712;SDS011;65640;43.154;25.658;2023-05-27T01:50:02;7.25;;;4.30;;
76712;SDS011;65640;43.154;25.658;2023-05-27T01:52:28;7.07;;;4.22;;
76712;SDS011;65640;43.154;25.658;2023-05-27T01:54:54;4.97;;;4.47;;
76712;SDS011;65640;43.154;25.658;2023-05-27T01:57:20;4.15;;;3.85;;
76712;SDS011;65640;43.154;25.658;2023-05-27T01:59:46;5.63;;;4.60;;
76712;SDS011;65640;43.154;25.658;2023-05-27T02:02:12;5.38;;;4.20;;
76712;SDS011;65640;43.154;25.658;2023-05-27T02:04:37;6.90;;;4.25;;
76712;SDS011;65640;43.154;25.658;2023-05-27T02:07:03;5.32;;;4.78;;
76712;SDS011;65640;43.154;25.658;2023-05-27T02:09:28;5.55;;;5.00;;
76712;SDS011;65640;43.154;25.658;2023-05-27T02:11:54;9.23;;;5.53;;
76712;SDS011;65640;43.154;25.658;2023-05-27T02:14:19;5.40;;;4.55;;
76712;SDS011;65640;43.154;25.658;2023-05-27T02:16:45;5.43;;;4.70;;
76712;SDS011;65640;43.154;25.658;2023-05-27T02:19:12;7.53;;;5.32;;
76712;SDS011;65640;43.154;25.658;2023-05-27T02:21:39;4.85;;;4.15;;
76712;SDS011;65640;43.154;25.658;2023-05-27T02:24:04;4.55;;;4.22;;
76712;SDS011;65640;43.154;25.658;2023-05-27T02:26:30;5.70;;;3.78;;
76712;SDS011;65640;43.154;25.658;2023-05-27T02:28:55;3.58;;;3.38;;
76712;SDS011;65640;43.154;25.658;2023-05-27T02:31:21;3.72;;;3.50;;
76712;SDS011;65640;43.154;25.658;2023-05-27T02:33:47;3.33;;;3.03;;
76712;SDS011;65640;43.154;25.658;2023-05-27T02:36:12;3.78;;;3.30;;
76712;SDS011;65640;43.154;25.658;2023-05-27T02:38:38;5.63;;;3.30;;
76712;SDS011;65640;43.154;25.658;2023-05-27T02:41:03;4.93;;;3.13;;
76712;SDS011;65640;43.154;25.658;2023-05-27T02:43:29;4.80;;;4.38;;
76712;SDS011;65640;43.154;25.658;2023-05-27T02:45:54;6.43;;;4.50;;
76712;SDS011;65640;43.154;25.658;2023-05-27T02:48:20;8.00;;;4.95;;
76712;SDS011;65640;43.154;25.658;2023-05-27T02:50:45;5.38;;;4.85;;
76712;SDS011;65640;43.154;25.658;2023-05-27T02:53:11;5.88;;;5.45;;
76712;SDS011;65640;43.154;25.658;2023-05-27T02:55:36;7.20;;;4.88;;
76712;SDS011;65640;43.154;25.658;2023-05-27T02:58:02;7.20;;;4.80;;
76712;SDS011;65640;43.154;25.658;2023-05-27T03:00:29;5.00;;;4.70;;
76712;SDS011;65640;43.154;25.658;2023-05-27T03:02:55;7.35;;;4.93;;
76712;SDS011;65640;43.154;25.658;2023-05-27T03:05:21;9.98;;;4.95;;
76712;SDS011;65640;43.154;25.658;2023-05-27T03:07:46;6.47;;;5.40;;
76712;SDS011;65640;43.154;25.658;2023-05-27T03:10:11;6.22;;;5.50;;
76712;SDS011;65640;43.154;25.658;2023-05-27T03:12:37;8.00;;;5.50;;
76712;SDS011;65640;43.154;25.658;2023-05-27T03:15:03;7.50;;;5.18;;
76712;SDS011;65640;43.154;25.658;2023-05-27T03:17:29;7.47;;;5.30;;
76712;SDS011;65640;43.154;25.658;2023-05-27T03:19:54;11.00;;;5.38;;
76712;SDS011;65640;43.154;25.658;2023-05-27T03:22:19;6.55;;;6.00;;
76712;SDS011;65640;43.154;25.658;2023-05-27T03:24:45;15.32;;;5.43;;
76712;SDS011;65640;43.154;25.658;2023-05-27T03:27:11;6.00;;;5.50;;
76712;SDS011;65640;43.154;25.658;2023-05-27T03:29:36;7.75;;;5.60;;
76712;SDS011;65640;43.154;25.658;2023-05-27T03:32:02;6.07;;;5.43;;
76712;SDS011;65640;43.154;25.658;2023-05-27T03:34:27;10.55;;;6.22;;
76712;SDS011;65640;43.154;25.658;2023-05-27T03:36:53;11.07;;;5.50;;
76712;SDS011;65640;43.154;25.658;2023-05-27T03:39:18;8.02;;;6.35;;
76712;SDS011;65640;43.154;25.658;2023-05-27T03:41:43;6.45;;;4.97;;
76712;SDS011;65640;43.154;25.658;2023-05-27T03:44:09;6.78;;;5.32;;
76712;SDS011;65640;43.154;25.658;2023-05-27T03:46:35;8.90;;;5.63;;
76712;SDS011;65640;43.154;25.658;2023-05-27T03:49:01;7.47;;;5.50;;
76712;SDS011;65640;43.154;25.658;2023-05-27T03:51:26;8.50;;;5.70;;
76712;SDS011;65640;43.154;25.658;2023-05-27T03:53:52;6.13;;;5.20;;
76712;SDS011;65640;43.154;25.658;2023-05-27T03:56:17;7.13;;;6.13;;
76712;SDS011;65640;43.154;25.658;2023-05-27T03:58:43;7.15;;;6.45;;
76712;SDS011;65640;43.154;25.658;2023-05-27T04:01:08;7.47;;;6.45;;
76712;SDS011;65640;43.154;25.658;2023-05-27T04:03:34;7.00;;;6.30;;
76712;SDS011;65640;43.154;25.658;2023-05-27T04:06:00;8.10;;;6.13;;
76712;SDS011;65640;43.154;25.658;2023-05-27T04:08:25;7.97;;;5.63;;
76712;SDS011;65640;43.154;25.658;2023-05-27T04:10:53;12.32;;;5.95;;
76712;SDS011;65640;43.154;25.658;2023-05-27T04:13:18;11.30;;;5.45;;
76712;SDS011;65640;43.154;25.658;2023-05-27T04:15:44;5.53;;;5.13;;
76712;SDS011;65640;43.154;25.658;2023-05-27T04:18:10;8.50;;;5.60;;
76712;SDS011;65640;43.154;25.658;2023-05-27T04:20:39;8.13;;;4.43;;
76712;SDS011;65640;43.154;25.658;2023-05-27T04:23:07;5.00;;;4.50;;
76712;SDS011;65640;43.154;25.658;2023-05-27T04:25:32;6.95;;;4.70;;
76712;SDS011;65640;43.154;25.658;2023-05-27T04:27:59;5.30;;;4.80;;
76712;SDS011;65640;43.154;25.658;2023-05-27T04:30:29;4.93;;;4.35;;
76712;SDS011;65640;43.154;25.658;2023-05-27T04:32:55;5.57;;;4.53;;
76712;SDS011;65640;43.154;25.658;2023-05-27T04:35:20;4.57;;;4.18;;
76712;SDS011;65640;43.154;25.658;2023-05-27T04:37:46;4.55;;;3.75;;
76712;SDS011;65640;43.154;25.658;2023-05-27T04:40:13;4.20;;;3.88;;
76712;SDS011;65640;43.154;25.658;2023-05-27T04:42:38;6.57;;;3.75;;
76712;SDS011;65640;43.154;25.658;2023-05-27T04:45:04;4.68;;;4.00;;
76712;SDS011;65640;43.154;25.658;2023-05-27T04:47:34;5.82;;;4.50;;
76712;SDS011;65640;43.154;25.658;2023-05-27T04:50:02;4.25;;;3.97;;
76712;SDS011;65640;43.154;25.658;2023-05-27T04:52:31;3.85;;;3.38;;
76712;SDS011;65640;43.154;25.658;2023-05-27T04:55:04;5.13;;;3.72;;
76712;SDS011;65640;43.154;25.658;2023-05-27T04:59:55;3.38;;;3.10;;
76712;SDS011;65640;43.154;25.658;2023-05-27T05:02:43;3.75;;;3.45;;
76712;SDS011;65640;43.154;25.658;2023-05-27T05:05:11;3.72;;;3.17;;
76712;SDS011;65640;43.154;25.658;2023-05-27T05:07:37;4.15;;;3.47;;
76712;SDS011;65640;43.154;25.658;2023-05-27T05:10:09;3.80;;;3.50;;
76712;SDS011;65640;43.154;25.658;2023-05-27T05:12:36;4.65;;;3.67;;
76712;SDS011;65640;43.154;25.658;2023-05-27T05:15:01;4.63;;;4.22;;
76712;SDS011;65640;43.154;25.658;2023-05-27T05:17:27;6.60;;;3.90;;
76712;SDS011;65640;43.154;25.658;2023-05-27T05:19:54;6.40;;;4.25;;
76712;SDS011;65640;43.154;25.658;2023-05-27T05:22:20;5.97;;;3.13;;
76712;SDS011;65640;43.154;25.658;2023-05-27T05:24:48;3.90;;;3.33;;
76712;SDS011;65640;43.154;25.658;2023-05-27T05:29:39;4.10;;;3.22;;
76712;SDS011;65640;43.154;25.658;2023-05-27T05:32:05;3.28;;;2.95;;
76712;SDS011;65640;43.154;25.658;2023-05-27T05:36:57;7.18;;;3.42;;
76712;SDS011;65640;43.154;25.658;2023-05-27T05:39:22;7.45;;;3.38;;
76712;SDS011;65640;43.154;25.658;2023-05-27T05:41:48;5.07;;;3.78;;
76712;SDS011;65640;43.154;25.658;2023-05-27T05:44:14;7.45;;;3.95;;
76712;SDS011;65640;43.154;25.658;2023-05-27T05:46:40;5.00;;;3.35;;
76712;SDS011;65640;43.154;25.658;2023-05-27T05:49:06;3.72;;;3.53;;
76712;SDS011;65640;43.154;25.658;2023-05-27T05:51:31;6.43;;;3.67;;
76712;SDS011;65640;43.154;25.658;2023-05-27T05:53:57;7.53;;;3.70;;
76712;SDS011;65640;43.154;25.658;2023-05-27T05:56:24;3.97;;;3.70;;
76712;SDS011;65640;43.154;25.658;2023-05-27T05:58:51;4.00;;;3.47;;
76712;SDS011;65640;43.154;25.658;2023-05-27T06:01:16;4.15;;;3.75;;
76712;SDS011;65640;43.154;25.658;2023-05-27T06:03:42;4.55;;;3.67;;
76712;SDS011;65640;43.154;25.658;2023-05-27T06:06:07;4.32;;;3.92;;
76712;SDS011;65640;43.154;25.658;2023-05-27T06:08:33;4.63;;;3.97;;
76712;SDS011;65640;43.154;25.658;2023-05-27T06:10:59;4.82;;;4.45;;
76712;SDS011;65640;43.154;25.658;2023-05-27T06:13:24;7.03;;;5.22;;
76712;SDS011;65640;43.154;25.658;2023-05-27T06:15:50;4.25;;;3.60;;
76712;SDS011;65640;43.154;25.658;2023-05-27T06:18:15;3.50;;;3.20;;
76712;SDS011;65640;43.154;25.658;2023-05-27T06:20:41;3.83;;;3.45;;
76712;SDS011;65640;43.154;25.658;2023-05-27T06:23:06;5.32;;;3.30;;
76712;SDS011;65640;43.154;25.658;2023-05-27T06:25:32;3.42;;;3.15;;
76712;SDS011;65640;43.154;25.658;2023-05-27T06:27:57;4.40;;;3.03;;
76712;SDS011;65640;43.154;25.658;2023-05-27T06:30:23;4.05;;;3.05;;
76712;SDS011;65640;43.154;25.658;2023-05-27T06:32:49;3.40;;;3.15;;
76712;SDS011;65640;43.154;25.658;2023-05-27T06:35:14;4.38;;;3.33;;
76712;SDS011;65640;43.154;25.658;2023-05-27T06:37:40;3.42;;;3.13;;
76712;SDS011;65640;43.154;25.658;2023-05-27T06:40:05;4.15;;;3.25;;
76712;SDS011;65640;43.154;25.658;2023-05-27T06:42:31;3.47;;;3.17;;
76712;SDS011;65640;43.154;25.658;2023-05-27T06:44:56;3.42;;;3.13;;
76712;SDS011;65640;43.154;25.658;2023-05-27T06:47:22;3.78;;;2.95;;
76712;SDS011;65640;43.154;25.658;2023-05-27T06:49:47;2.92;;;2.72;;
76712;SDS011;65640;43.154;25.658;2023-05-27T06:52:13;4.13;;;3.28;;
76712;SDS011;65640;43.154;25.658;2023-05-27T06:54:38;4.43;;;2.95;;
76712;SDS011;65640;43.154;25.658;2023-05-27T06:57:04;3.50;;;2.83;;
76712;SDS011;65640;43.154;25.658;2023-05-27T06:59:29;5.45;;;3.28;;
76712;SDS011;65640;43.154;25.658;2023-05-27T07:01:54;4.82;;;2.95;;
76712;SDS011;65640;43.154;25.658;2023-05-27T07:04:24;3.28;;;3.08;;
76712;SDS011;65640;43.154;25.658;2023-05-27T07:06:49;4.43;;;2.45;;
76712;SDS011;65640;43.154;25.658;2023-05-27T07:09:15;2.67;;;2.47;;
76712;SDS011;65640;43.154;25.658;2023-05-27T07:11:41;3.08;;;2.50;;
76712;SDS011;65640;43.154;25.658;2023-05-27T07:14:06;2.97;;;2.50;;
76712;SDS011;65640;43.154;25.658;2023-05-27T07:16:34;2.55;;;2.35;;
76712;SDS011;65640;43.154;25.658;2023-05-27T07:19:00;4.72;;;2.38;;
76712;SDS011;65640;43.154;25.658;2023-05-27T07:21:25;2.42;;;2.28;;
76712;SDS011;65640;43.154;25.658;2023-05-27T07:23:50;2.65;;;2.45;;
76712;SDS011;65640;43.154;25.658;2023-05-27T07:26:16;5.78;;;2.47;;
76712;SDS011;65640;43.154;25.658;2023-05-27T07:28:41;2.75;;;2.20;;
76712;SDS011;65640;43.154;25.658;2023-05-27T07:31:07;2.78;;;2.22;;
76712;SDS011;65640;43.154;25.658;2023-05-27T07:33:32;3.17;;;2.00;;
76712;SDS011;65640;43.154;25.658;2023-05-27T07:35:58;2.80;;;2.00;;
76712;SDS011;65640;43.154;25.658;2023-05-27T07:38:23;4.82;;;2.13;;
76712;SDS011;65640;43.154;25.658;2023-05-27T07:40:48;4.28;;;2.90;;
76712;SDS011;65640;43.154;25.658;2023-05-27T07:43:14;6.40;;;2.10;;
76712;SDS011;65640;43.154;25.658;2023-05-27T07:45:40;4.85;;;2.65;;
76712;SDS011;65640;43.154;25.658;2023-05-27T07:48:05;4.05;;;2.58;;
76712;SDS011;65640;43.154;25.658;2023-05-27T07:50:30;3.95;;;2.78;;
76712;SDS011;65640;43.154;25.658;2023-05-27T07:52:56;3.28;;;2.90;;
76712;SDS011;65640;43.154;25.658;2023-05-27T07:55:21;6.03;;;2.63;;
76712;SDS011;65640;43.154;25.658;2023-05-27T07:57:47;4.55;;;3.03;;
76712;SDS011;65640;43.154;25.658;2023-05-27T08:00:12;4.13;;;2.78;;
76712;SDS011;65640;43.154;25.658;2023-05-27T08:02:38;3.65;;;3.35;;
76712;SDS011;65640;43.154;25.658;2023-05-27T08:05:04;4.80;;;3.08;;
76712;SDS011;65640;43.154;25.658;2023-05-27T08:07:30;4.78;;;3.95;;
76712;SDS011;65640;43.154;25.658;2023-05-27T08:09:55;3.20;;;2.50;;
76712;SDS011;65640;43.154;25.658;2023-05-27T08:12:21;3.22;;;3.10;;
76712;SDS011;65640;43.154;25.658;2023-05-27T08:14:47;3.42;;;3.22;;
76712;SDS011;65640;43.154;25.658;2023-05-27T08:17:13;2.80;;;2.70;;
76712;SDS011;65640;43.154;25.658;2023-05-27T08:19:39;6.20;;;3.00;;
76712;SDS011;65640;43.154;25.658;2023-05-27T08:22:05;3.35;;;3.15;;
76712;SDS011;65640;43.154;25.658;2023-05-27T08:24:33;4.85;;;3.60;;
76712;SDS011;65640;43.154;25.658;2023-05-27T08:27:02;4.63;;;3.45;;
76712;SDS011;65640;43.154;25.658;2023-05-27T08:29:31;3.80;;;3.33;;
76712;SDS011;65640;43.154;25.658;2023-05-27T08:31:57;3.30;;;3.00;;
76712;SDS011;65640;43.154;25.658;2023-05-27T08:34:23;3.35;;;3.15;;
76712;SDS011;65640;43.154;25.658;2023-05-27T08:36:48;3.50;;;3.20;;
76712;SDS011;65640;43.154;25.658;2023-05-27T08:39:14;3.53;;;3.22;;
76712;SDS011;65640;43.154;25.658;2023-05-27T08:41:39;5.43;;;3.83;;
76712;SDS011;65640;43.154;25.658;2023-05-27T08:44:06;4.47;;;3.83;;
76712;SDS011;65640;43.154;25.658;2023-05-27T08:46:32;3.42;;;3.22;;
76712;SDS011;65640;43.154;25.658;2023-05-27T08:48:58;4.43;;;3.60;;
76712;SDS011;65640;43.154;25.658;2023-05-27T08:51:24;4.20;;;3.90;;
76712;SDS011;65640;43.154;25.658;2023-05-27T08:53:51;4.82;;;4.20;;
76712;SDS011;65640;43.154;25.658;2023-05-27T08:56:18;4.68;;;4.13;;
76712;SDS011;65640;43.154;25.658;2023-05-27T08:58:48;4.00;;;3.33;;
76712;SDS011;65640;43.154;25.658;2023-05-27T09:01:17;5.13;;;3.72;;
76712;SDS011;65640;43.154;25.658;2023-05-27T09:03:43;4.22;;;4.00;;
76712;SDS011;65640;43.154;25.658;2023-05-27T09:06:09;4.55;;;4.25;;
76712;SDS011;65640;43.154;25.658;2023-05-27T09:08:34;4.72;;;4.32;;
76712;SDS011;65640;43.154;25.658;2023-05-27T09:11:00;10.13;;;4.45;;
76712;SDS011;65640;43.154;25.658;2023-05-27T09:13:29;4.03;;;3.65;;
76712;SDS011;65640;43.154;25.658;2023-05-27T09:15:59;6.55;;;4.80;;
76712;SDS011;65640;43.154;25.658;2023-05-27T09:18:26;6.15;;;4.22;;
76712;SDS011;65640;43.154;25.658;2023-05-27T09:20:56;4.88;;;4.40;;
76712;SDS011;65640;43.154;25.658;2023-05-27T09:23:21;4.03;;;3.83;;
76712;SDS011;65640;43.154;25.658;2023-05-27T09:25:47;5.43;;;4.93;;
76712;SDS011;65640;43.154;25.658;2023-05-27T09:28:19;5.82;;;5.28;;
76712;SDS011;65640;43.154;25.658;2023-05-27T09:30:46;5.53;;;4.95;;
76712;SDS011;65640;43.154;25.658;2023-05-27T09:33:12;5.35;;;4.90;;
76712;SDS011;65640;43.154;25.658;2023-05-27T09:35:37;5.63;;;4.45;;
76712;SDS011;65640;43.154;25.658;2023-05-27T09:38:06;6.13;;;5.57;;
76712;SDS011;65640;43.154;25.658;2023-05-27T09:40:31;5.47;;;5.13;;
76712;SDS011;65640;43.154;25.658;2023-05-27T09:43:00;5.32;;;5.03;;
76712;SDS011;65640;43.154;25.658;2023-05-27T09:45:25;6.18;;;5.57;;
76712;SDS011;65640;43.154;25.658;2023-05-27T09:47:53;9.88;;;6.50;;
76712;SDS011;65640;43.154;25.658;2023-05-27T09:50:19;9.57;;;6.82;;
76712;SDS011;65640;43.154;25.658;2023-05-27T09:52:46;8.40;;;6.88;;
76712;SDS011;65640;43.154;25.658;2023-05-27T09:55:13;8.50;;;7.30;;
76712;SDS011;65640;43.154;25.658;2023-05-27T09:57:39;8.43;;;7.18;;
76712;SDS011;65640;43.154;25.658;2023-05-27T10:00:06;9.68;;;7.88;;
76712;SDS011;65640;43.154;25.658;2023-05-27T10:02:46;7.35;;;6.75;;
76712;SDS011;65640;43.154;25.658;2023-05-27T10:05:13;8.10;;;7.30;;
76712;SDS011;65640;43.154;25.658;2023-05-27T10:07:41;8.52;;;6.57;;
76712;SDS011;65640;43.154;25.658;2023-05-27T10:10:12;10.93;;;7.15;;
76712;SDS011;65640;43.154;25.658;2023-05-27T10:12:43;8.65;;;7.95;;
76712;SDS011;65640;43.154;25.658;2023-05-27T10:15:20;8.40;;;7.65;;
76712;SDS011;65640;43.154;25.658;2023-05-27T10:17:57;7.45;;;6.80;;
76712;SDS011;65640;43.154;25.658;2023-05-27T10:20:38;9.32;;;7.57;;
76712;SDS011;65640;43.154;25.658;2023-05-27T10:25:44;6.88;;;6.28;;
76712;SDS011;65640;43.154;25.658;2023-05-27T10:28:27;6.28;;;5.65;;
76712;SDS011;65640;43.154;25.658;2023-05-27T10:31:04;5.97;;;5.38;;
76712;SDS011;65640;43.154;25.658;2023-05-27T10:33:34;6.47;;;5.90;;
76712;SDS011;65640;43.154;25.658;2023-05-27T10:36:06;6.57;;;5.95;;
76712;SDS011;65640;43.154;25.658;2023-05-27T10:38:36;6.55;;;6.05;;
76712;SDS011;65640;43.154;25.658;2023-05-27T10:43:30;5.72;;;5.10;;
76712;SDS011;65640;43.154;25.658;2023-05-27T10:46:16;5.28;;;4.85;;
76712;SDS011;65640;43.154;25.658;2023-05-27T10:48:41;5.20;;;4.80;;
76712;SDS011;65640;43.154;25.658;2023-05-27T10:51:07;6.45;;;4.30;;
76712;SDS011;65640;43.154;25.658;2023-05-27T10:56:00;5.07;;;4.05;;
76712;SDS011;65640;43.154;25.658;2023-05-27T10:58:25;4.32;;;3.90;;
76712;SDS011;65640;43.154;25.658;2023-05-27T11:00:52;4.85;;;4.45;;
76712;SDS011;65640;43.154;25.658;2023-05-27T11:03:19;5.45;;;5.05;;
76712;SDS011;65640;43.154;25.658;2023-05-27T11:13:38;4.22;;;3.83;;
76712;SDS011;65640;43.154;25.658;2023-05-27T11:16:06;4.60;;;4.20;;
76712;SDS011;65640;43.154;25.658;2023-05-27T11:18:39;4.63;;;4.32;;
76712;SDS011;65640;43.154;25.658;2023-05-27T11:21:06;4.18;;;3.88;;
76712;SDS011;65640;43.154;25.658;2023-05-27T11:23:36;5.05;;;4.68;;
76712;SDS011;65640;43.154;25.658;2023-05-27T11:26:10;7.57;;;4.47;;
76712;SDS011;65640;43.154;25.658;2023-05-27T11:28:52;5.63;;;5.03;;
76712;SDS011;65640;43.154;25.658;2023-05-27T11:31:21;4.25;;;3.83;;
76712;SDS011;65640;43.154;25.658;2023-05-27T11:33:52;6.35;;;3.88;;
76712;SDS011;65640;43.154;25.658;2023-05-27T11:36:18;6.63;;;4.20;;
76712;SDS011;65640;43.154;25.658;2023-05-27T11:41:15;4.28;;;3.85;;
76712;SDS011;65640;43.154;25.658;2023-05-27T11:43:48;4.63;;;4.32;;
76712;SDS011;65640;43.154;25.658;2023-05-27T11:46:13;4.22;;;3.85;;
76712;SDS011;65640;43.154;25.658;2023-05-27T11:48:39;4.70;;;3.67;;
76712;SDS011;65640;43.154;25.658;2023-05-27T11:51:05;5.55;;;4.45;;
76712;SDS011;65640;43.154;25.658;2023-05-27T11:53:30;6.75;;;4.13;;
76712;SDS011;65640;43.154;25.658;2023-05-27T11:55:55;6.57;;;3.65;;
76712;SDS011;65640;43.154;25.658;2023-05-27T11:58:21;4.10;;;3.72;;
76712;SDS011;65640;43.154;25.658;2023-05-27T12:00:46;3.47;;;3.17;;
76712;SDS011;65640;43.154;25.658;2023-05-27T12:03:12;5.57;;;3.90;;
76712;SDS011;65640;43.154;25.658;2023-05-27T12:05:37;3.67;;;3.47;;
76712;SDS011;65640;43.154;25.658;2023-05-27T12:08:03;4.03;;;3.50;;
76712;SDS011;65640;43.154;25.658;2023-05-27T12:10:28;4.50;;;4.07;;
76712;SDS011;65640;43.154;25.658;2023-05-27T12:13:02;4.03;;;3.72;;
76712;SDS011;65640;43.154;25.658;2023-05-27T12:15:28;5.05;;;3.92;;
76712;SDS011;65640;43.154;25.658;2023-05-27T12:17:53;3.95;;;3.60;;
76712;SDS011;65640;43.154;25.658;2023-05-27T12:20:19;4.00;;;3.75;;
76712;SDS011;65640;43.154;25.658;2023-05-27T12:22:45;6.45;;;3.72;;
76712;SDS011;65640;43.154;25.658;2023-05-27T12:25:10;4.18;;;3.85;;
76712;SDS011;65640;43.154;25.658;2023-05-27T12:27:36;6.88;;;4.22;;
76712;SDS011;65640;43.154;25.658;2023-05-27T12:30:02;3.70;;;3.40;;
76712;SDS011;65640;43.154;25.658;2023-05-27T12:32:27;3.97;;;3.55;;
76712;SDS011;65640;43.154;25.658;2023-05-27T12:34:53;5.63;;;3.90;;
76712;SDS011;65640;43.154;25.658;2023-05-27T12:37:18;4.38;;;3.78;;
76712;SDS011;65640;43.154;25.658;2023-05-27T12:39:45;4.60;;;3.88;;
76712;SDS011;65640;43.154;25.658;2023-05-27T12:42:10;4.63;;;3.95;;
76712;SDS011;65640;43.154;25.658;2023-05-27T12:44:36;3.92;;;3.65;;
76712;SDS011;65640;43.154;25.658;2023-05-27T12:47:01;5.50;;;4.05;;
76712;SDS011;65640;43.154;25.658;2023-05-27T12:49:26;4.53;;;4.15;;
76712;SDS011;65640;43.154;25.658;2023-05-27T12:54:18;4.10;;;3.70;;
76712;SDS011;65640;43.154;25.658;2023-05-27T12:56:44;6.05;;;4.38;;
76712;SDS011;65640;43.154;25.658;2023-05-27T12:59:09;3.85;;;3.50;;
76712;SDS011;65640;43.154;25.658;2023-05-27T13:01:35;5.35;;;3.75;;
76712;SDS011;65640;43.154;25.658;2023-05-27T13:04:00;3.65;;;3.35;;
76712;SDS011;65640;43.154;25.658;2023-05-27T13:06:26;4.30;;;4.00;;
76712;SDS011;65640;43.154;25.658;2023-05-27T13:08:51;4.07;;;3.70;;
76712;SDS011;65640;43.154;25.658;2023-05-27T13:11:17;4.43;;;4.13;;
76712;SDS011;65640;43.154;25.658;2023-05-27T13:13:42;6.95;;;3.60;;
76712;SDS011;65640;43.154;25.658;2023-05-27T13:16:08;3.97;;;3.63;;
76712;SDS011;65640;43.154;25.658;2023-05-27T13:18:33;6.05;;;4.20;;
76712;SDS011;65640;43.154;25.658;2023-05-27T13:20:59;4.05;;;3.50;;
76712;SDS011;65640;43.154;25.658;2023-05-27T13:23:24;5.22;;;3.70;;
76712;SDS011;65640;43.154;25.658;2023-05-27T13:25:50;4.20;;;3.90;;
76712;SDS011;65640;43.154;25.658;2023-05-27T13:28:17;4.50;;;4.10;;
76712;SDS011;65640;43.154;25.658;2023-05-27T13:30:42;4.30;;;3.88;;
76712;SDS011;65640;43.154;25.658;2023-05-27T13:33:07;4.32;;;4.00;;
76712;SDS011;65640;43.154;25.658;2023-05-27T13:35:33;5.05;;;3.55;;
76712;SDS011;65640;43.154;25.658;2023-05-27T13:37:59;6.95;;;3.72;;
76712;SDS011;65640;43.154;25.658;2023-05-27T13:40:25;4.80;;;3.63;;
76712;SDS011;65640;43.154;25.658;2023-05-27T13:42:51;7.60;;;3.80;;
76712;SDS011;65640;43.154;25.658;2023-05-27T13:45:16;4.18;;;3.88;;
76712;SDS011;65640;43.154;25.658;2023-05-27T13:47:41;5.53;;;3.53;;
76712;SDS011;65640;43.154;25.658;2023-05-27T13:50:09;4.97;;;3.72;;
76712;SDS011;65640;43.154;25.658;2023-05-27T13:52:35;6.72;;;3.72;;
76712;SDS011;65640;43.154;25.658;2023-05-27T13:55:01;6.28;;;3.70;;
76712;SDS011;65640;43.154;25.658;2023-05-27T13:57:27;4.70;;;4.03;;
76712;SDS011;65640;43.154;25.658;2023-05-27T13:59:52;3.70;;;3.40;;
76712;SDS011;65640;43.154;25.658;2023-05-27T14:02:18;4.90;;;3.85;;
76712;SDS011;65640;43.154;25.658;2023-05-27T14:04:43;5.78;;;3.97;;
76712;SDS011;65640;43.154;25.658;2023-05-27T14:07:09;4.45;;;4.15;;
76712;SDS011;65640;43.154;25.658;2023-05-27T14:09:35;4.72;;;4.30;;
76712;SDS011;65640;43.154;25.658;2023-05-27T14:12:00;4.15;;;3.88;;
76712;SDS011;65640;43.154;25.658;2023-05-27T14:14:27;4.47;;;4.18;;
76712;SDS011;65640;43.154;25.658;2023-05-27T14:16:52;4.00;;;3.70;;
76712;SDS011;65640;43.154;25.658;2023-05-27T14:19:18;5.60;;;3.92;;
76712;SDS011;65640;43.154;25.658;2023-05-27T14:21:44;3.60;;;3.40;;
76712;SDS011;65640;43.154;25.658;2023-05-27T14:24:10;5.45;;;4.00;;
76712;SDS011;65640;43.154;25.658;2023-05-27T14:26:37;5.35;;;4.72;;
76712;SDS011;65640;43.154;25.658;2023-05-27T14:29:03;5.75;;;4.30;;
76712;SDS011;65640;43.154;25.658;2023-05-27T14:31:28;4.80;;;4.38;;
76712;SDS011;65640;43.154;25.658;2023-05-27T14:33:53;5.07;;;4.10;;
76712;SDS011;65640;43.154;25.658;2023-05-27T14:36:19;4.70;;;3.75;;
76712;SDS011;65640;43.154;25.658;2023-05-27T14:38:45;4.20;;;3.90;;
76712;SDS011;65640;43.154;25.658;2023-05-27T14:41:10;4.22;;;3.70;;
76712;SDS011;65640;43.154;25.658;2023-05-27T14:43:36;6.88;;;3.85;;
76712;SDS011;65640;43.154;25.658;2023-05-27T14:46:01;4.40;;;4.00;;
76712;SDS011;65640;43.154;25.658;2023-05-27T14:48:26;3.90;;;3.60;;
76712;SDS011;65640;43.154;25.658;2023-05-27T14:50:52;8.55;;;4.28;;
76712;SDS011;65640;43.154;25.658;2023-05-27T14:53:17;6.72;;;4.40;;
76712;SDS011;65640;43.154;25.658;2023-05-27T14:55:43;5.88;;;4.20;;
76712;SDS011;65640;43.154;25.658;2023-05-27T14:58:08;4.25;;;3.95;;
76712;SDS011;65640;43.154;25.658;2023-05-27T15:00:33;4.43;;;4.03;;
76712;SDS011;65640;43.154;25.658;2023-05-27T15:02:59;4.63;;;4.05;;
76712;SDS011;65640;43.154;25.658;2023-05-27T15:05:25;4.28;;;3.88;;
76712;SDS011;65640;43.154;25.658;2023-05-27T15:07:50;8.48;;;3.78;;
76712;SDS011;65640;43.154;25.658;2023-05-27T15:10:16;4.00;;;2.45;;